createdAt,value
2018-05-14T00:02:03.226Z,99.90
2018-05-14T00:04:30.809Z,99.90
2018-05-14T00:06:58.272Z,99.90
2018-05-14T00:09:26.529Z,99.90
2018-05-14T00:11:54.096Z,99.90
2018-05-14T00:14:22.268Z,99.90
2018-05-14T00:16:49.733Z,99.90
2018-05-14T00:19:18.017Z,99.90
2018-05-14T00:21:46.261Z,99.90
2018-05-14T00:24:13.729Z,99.90
2018-05-14T00:26:41.326Z,99.90
2018-05-14T00:29:08.790Z,99.90
2018-05-14T00:31:36.286Z,99.90
2018-05-14T00:34:03.757Z,99.90
2018-05-14T00:36:31.229Z,99.90
2018-05-14T00:38:58.721Z,99.90
2018-05-14T00:41:26.188Z,99.90
2018-05-14T00:43:53.856Z,99.90
2018-05-14T00:46:21.352Z,99.90
2018-05-14T00:48:50.011Z,99.90
2018-05-14T00:51:17.534Z,99.90
2018-05-14T00:53:45.004Z,99.90
2018-05-14T00:56:12.473Z,99.90
2018-05-14T00:58:39.966Z,99.90
2018-05-14T01:01:07.439Z,99.90
2018-05-14T01:03:35.676Z,99.90
2018-05-14T01:06:03.166Z,99.90
2018-05-14T01:08:31.401Z,99.90
2018-05-14T01:10:58.891Z,99.90
2018-05-14T01:13:26.433Z,99.90
2018-05-14T01:15:53.913Z,99.90
2018-05-14T01:18:22.186Z,99.90
2018-05-14T01:20:50.410Z,99.90
2018-05-14T01:23:17.954Z,99.90
2018-05-14T01:25:45.432Z,99.90
2018-05-14T01:28:12.975Z,99.90
2018-05-14T01:30:40.396Z,99.90
2018-05-14T01:33:08.645Z,99.90
2018-05-14T01:35:36.119Z,99.90
2018-05-14T01:38:04.376Z,99.90
2018-05-14T01:40:31.854Z,99.90
2018-05-14T01:42:59.318Z,99.90
2018-05-14T01:45:27.574Z,99.90
2018-05-14T01:47:55.129Z,99.90
2018-05-14T01:50:22.605Z,99.90
2018-05-14T01:52:50.861Z,99.90
2018-05-14T01:55:18.336Z,99.90
2018-05-14T01:57:46.573Z,99.90
2018-05-14T02:00:14.062Z,99.90
2018-05-14T02:02:42.306Z,99.90
2018-05-14T02:05:09.761Z,99.90
2018-05-14T02:07:37.249Z,99.90
2018-05-14T02:10:05.489Z,99.90
2018-05-14T02:12:32.956Z,99.90
2018-05-14T02:15:00.442Z,99.90
2018-05-14T02:17:28.685Z,99.90
2018-05-14T02:19:56.157Z,99.90
2018-05-14T02:22:23.638Z,99.90
2018-05-14T02:24:51.872Z,99.90
2018-05-14T02:27:19.345Z,99.90
2018-05-14T02:29:46.827Z,99.90
2018-05-14T02:32:15.126Z,99.90
2018-05-14T02:34:42.592Z,99.90
2018-05-14T02:37:10.096Z,99.90
2018-05-14T02:39:38.329Z,99.90
2018-05-14T02:42:05.800Z,99.90
2018-05-14T02:44:33.281Z,99.90
2018-05-14T02:47:00.752Z,99.90
2018-05-14T02:49:29.023Z,99.90
2018-05-14T02:51:57.274Z,99.90
2018-05-14T02:54:24.746Z,99.90
2018-05-14T02:56:52.212Z,99.90
2018-05-14T02:59:20.473Z,99.90
2018-05-14T03:01:48.025Z,99.90
2018-05-14T03:04:15.436Z,99.90
2018-05-14T03:06:42.913Z,99.90
2018-05-14T03:09:10.377Z,99.90
2018-05-14T03:11:37.848Z,99.90
2018-05-14T03:14:05.329Z,99.90
2018-05-14T03:16:33.564Z,99.90
2018-05-14T03:19:01.024Z,99.90
2018-05-14T03:21:28.508Z,99.90
2018-05-14T03:23:56.744Z,99.90
2018-05-14T03:26:24.215Z,99.90
2018-05-14T03:28:51.696Z,99.90
2018-05-14T03:31:19.944Z,99.90
2018-05-14T03:33:47.408Z,99.90
2018-05-14T03:36:14.906Z,99.90
2018-05-14T03:38:42.428Z,99.90
2018-05-14T03:41:09.901Z,99.90
2018-05-14T03:43:38.155Z,99.90
2018-05-14T03:46:06.393Z,99.90
2018-05-14T03:48:33.865Z,99.90
2018-05-14T03:51:01.918Z,99.90
2018-05-14T03:53:29.434Z,99.90
2018-05-14T03:55:56.898Z,99.90
2018-05-14T03:58:37.207Z,99.90
2018-05-14T04:01:16.673Z,99.90
2018-05-14T04:03:56.013Z,99.90
2018-05-14T04:06:34.224Z,99.90
2018-05-14T04:09:01.715Z,99.90
2018-05-14T04:11:29.176Z,99.90
2018-05-14T04:13:58.293Z,99.90
2018-05-14T04:16:25.855Z,99.90
2018-05-14T04:18:54.217Z,99.90
2018-05-14T04:21:21.677Z,99.90
2018-05-14T04:23:49.161Z,99.90
2018-05-14T04:26:16.648Z,99.90
2018-05-14T04:28:44.882Z,99.90
2018-05-14T04:31:12.377Z,99.90
2018-05-14T04:33:40.603Z,99.90
2018-05-14T04:36:08.077Z,99.90
2018-05-14T04:38:35.572Z,99.90
2018-05-14T04:41:03.822Z,99.90
2018-05-14T04:43:31.289Z,99.90
2018-05-14T04:45:58.795Z,99.90
2018-05-14T04:48:26.245Z,99.90
2018-05-14T04:50:53.710Z,99.90
2018-05-14T04:53:21.189Z,99.90
2018-05-14T04:55:48.674Z,99.90
2018-05-14T04:58:16.141Z,99.90
2018-05-14T05:00:44.405Z,99.90
2018-05-14T05:03:11.908Z,99.90
2018-05-14T05:05:39.376Z,99.90
2018-05-14T05:08:06.858Z,99.90
2018-05-14T05:10:34.326Z,99.90
2018-05-14T05:13:02.590Z,99.90
2018-05-14T05:15:30.416Z,99.90
2018-05-14T05:17:57.891Z,99.90
2018-05-14T05:20:25.372Z,99.90
2018-05-14T05:22:52.886Z,99.90
2018-05-14T05:25:20.312Z,99.90
2018-05-14T05:27:48.548Z,99.90
2018-05-14T05:30:16.044Z,99.90
2018-05-14T05:32:44.280Z,99.90
2018-05-14T05:35:11.763Z,99.90
2018-05-14T05:37:39.349Z,99.90
2018-05-14T05:40:06.731Z,99.90
2018-05-14T05:42:34.269Z,99.90
2018-05-14T05:45:01.753Z,99.90
2018-05-14T05:47:29.223Z,99.90
2018-05-14T05:49:56.694Z,99.90
2018-05-14T05:52:24.200Z,99.90
2018-05-14T05:54:52.413Z,99.90
2018-05-14T05:57:19.885Z,99.90
2018-05-14T05:59:47.369Z,99.90
2018-05-14T06:02:15.675Z,99.90
2018-05-14T06:04:43.232Z,99.90
2018-05-14T06:07:10.701Z,99.90
2018-05-14T06:09:38.161Z,99.90
2018-05-14T06:12:05.624Z,99.90
2018-05-14T06:14:33.123Z,99.90
2018-05-14T06:17:01.353Z,99.90
2018-05-14T06:19:28.812Z,99.90
2018-05-14T06:21:56.301Z,99.90
2018-05-14T06:24:24.546Z,99.90
2018-05-14T06:26:52.031Z,99.90
2018-05-14T06:29:19.506Z,99.90
2018-05-14T06:31:47.736Z,99.90
2018-05-14T06:34:15.222Z,99.90
2018-05-14T06:36:42.770Z,99.90
2018-05-14T06:39:10.248Z,99.90
2018-05-14T06:41:38.505Z,99.90
2018-05-14T06:44:05.965Z,99.90
2018-05-14T06:46:33.445Z,99.90
2018-05-14T06:49:01.687Z,99.90
2018-05-14T06:51:29.184Z,99.90
2018-05-14T06:53:56.645Z,99.90
2018-05-14T06:56:24.139Z,99.90
2018-05-14T06:58:51.593Z,99.90
2018-05-14T07:01:19.097Z,99.90
2018-05-14T07:03:47.341Z,99.90
2018-05-14T07:06:14.856Z,99.90
2018-05-14T07:08:42.360Z,99.90
2018-05-14T07:11:09.821Z,99.90
2018-05-14T07:13:38.184Z,99.90
2018-05-14T07:16:05.664Z,99.90
2018-05-14T07:18:33.897Z,99.90
2018-05-14T07:21:01.369Z,99.90
2018-05-14T07:23:28.845Z,99.90
2018-05-14T07:25:56.309Z,99.90
2018-05-14T07:28:24.538Z,99.90
2018-05-14T07:30:52.017Z,99.90
2018-05-14T07:33:19.473Z,99.90
2018-05-14T07:35:47.049Z,99.90
2018-05-14T07:38:14.532Z,99.90
2018-05-14T07:40:42.001Z,99.90
2018-05-14T07:43:09.544Z,99.90
2018-05-14T07:45:37.777Z,99.90
2018-05-14T07:48:05.253Z,99.90
2018-05-14T07:50:32.733Z,99.90
2018-05-14T07:53:00.965Z,99.90
2018-05-14T07:55:28.434Z,99.90
2018-05-14T07:57:55.917Z,99.90
2018-05-14T08:00:24.244Z,99.90
2018-05-14T08:02:51.724Z,99.90
2018-05-14T08:05:19.280Z,99.90
2018-05-14T08:07:46.757Z,99.90
2018-05-14T08:10:15.029Z,99.90
2018-05-14T08:12:43.269Z,99.90
2018-05-14T08:15:10.742Z,99.90
2018-05-14T08:17:38.204Z,99.90
2018-05-14T08:20:05.712Z,99.90
2018-05-14T08:22:33.197Z,99.90
2018-05-14T08:25:00.666Z,99.90
2018-05-14T08:27:28.140Z,99.90
2018-05-14T08:29:55.640Z,99.90
2018-05-14T08:32:23.121Z,99.90
2018-05-14T08:34:50.572Z,99.90
2018-05-14T08:37:18.056Z,99.90
2018-05-14T08:39:46.296Z,99.90
2018-05-14T08:42:13.767Z,99.90
2018-05-14T08:44:41.253Z,99.90
2018-05-14T08:47:08.724Z,99.90
2018-05-14T08:49:36.955Z,99.90
2018-05-14T08:52:04.453Z,99.90
2018-05-14T08:54:32.700Z,99.90
2018-05-14T08:57:00.180Z,99.90
2018-05-14T08:59:28.433Z,99.90
2018-05-14T09:01:55.893Z,99.90
2018-05-14T09:04:23.375Z,99.90
2018-05-14T09:06:51.620Z,99.90
2018-05-14T09:09:19.197Z,99.90
2018-05-14T09:11:46.663Z,99.90
2018-05-14T09:14:14.903Z,99.90
2018-05-14T09:16:42.380Z,99.90
2018-05-14T09:19:10.460Z,99.90
2018-05-14T09:21:38.737Z,99.90
2018-05-14T09:24:06.972Z,99.90
2018-05-14T09:26:34.510Z,99.90
2018-05-14T09:29:01.924Z,99.90
2018-05-14T09:31:30.157Z,99.90
2018-05-14T09:33:57.622Z,99.90
2018-05-14T09:36:25.107Z,99.90
2018-05-14T09:38:52.584Z,99.90
2018-05-14T09:41:20.812Z,99.90
2018-05-14T09:43:48.337Z,99.90
2018-05-14T09:46:15.800Z,99.90
2018-05-14T09:48:43.289Z,99.90
2018-05-14T09:51:10.773Z,99.90
2018-05-14T09:53:39.037Z,99.90
2018-05-14T09:56:06.505Z,99.90
2018-05-14T09:58:34.744Z,99.90
2018-05-14T10:01:02.214Z,99.90
2018-05-14T10:03:29.808Z,99.90
2018-05-14T10:05:58.049Z,99.90
2018-05-14T10:08:25.514Z,99.90
2018-05-14T10:10:52.994Z,99.90
2018-05-14T10:13:21.272Z,99.90
2018-05-14T10:15:48.742Z,99.90
2018-05-14T10:18:16.218Z,99.90
2018-05-14T10:20:43.697Z,99.90
2018-05-14T10:23:11.157Z,99.90
2018-05-14T10:25:38.622Z,99.90
2018-05-14T10:28:06.129Z,99.90
2018-05-14T10:30:33.593Z,99.90
2018-05-14T10:33:01.052Z,99.90
2018-05-14T10:35:28.530Z,99.90
2018-05-14T10:37:55.998Z,99.90
2018-05-14T10:40:23.519Z,99.90
2018-05-14T10:42:51.006Z,99.90
2018-05-14T10:45:18.545Z,99.90
2018-05-14T10:47:46.026Z,99.90
2018-05-14T10:50:13.485Z,99.90
2018-05-14T10:52:40.953Z,99.90
2018-05-14T10:55:08.459Z,99.90
2018-05-14T10:57:36.018Z,99.90
2018-05-14T11:00:04.249Z,99.90
2018-05-14T11:02:31.729Z,99.90
2018-05-14T11:04:59.208Z,99.90
2018-05-14T11:07:26.664Z,99.90
2018-05-14T11:09:54.166Z,99.90
2018-05-14T11:12:21.628Z,99.90
2018-05-14T11:14:49.096Z,99.90
2018-05-14T11:17:17.358Z,99.90
2018-05-14T11:19:44.812Z,99.90
2018-05-14T11:22:12.278Z,99.90
2018-05-14T11:24:39.776Z,99.90
2018-05-14T11:27:07.229Z,99.90
2018-05-14T11:29:34.701Z,99.90
2018-05-14T11:32:02.190Z,99.90
2018-05-14T11:34:30.432Z,99.90
2018-05-14T11:36:57.889Z,99.90
2018-05-14T11:39:25.397Z,99.90
2018-05-14T11:41:53.643Z,99.90
2018-05-14T11:44:21.103Z,99.90
2018-05-14T11:46:48.577Z,99.90
2018-05-14T11:49:16.081Z,99.90
2018-05-14T11:51:43.641Z,99.90
2018-05-14T11:54:11.202Z,99.90
2018-05-14T11:56:38.701Z,99.90
2018-05-14T11:59:06.165Z,99.90
2018-05-14T12:01:33.715Z,99.90
2018-05-14T12:04:02.100Z,99.90
2018-05-14T12:06:29.580Z,99.90
2018-05-14T12:08:57.805Z,98.10
2018-05-14T12:11:25.281Z,98.10
2018-05-14T12:13:52.769Z,98.00
2018-05-14T12:16:20.318Z,98.30
2018-05-14T12:18:47.706Z,99.10
2018-05-14T12:21:15.195Z,98.40
2018-05-14T12:23:42.661Z,96.60
2018-05-14T12:26:10.124Z,98.70
2018-05-14T12:28:37.609Z,98.00
2018-05-14T12:31:05.832Z,98.30
2018-05-14T12:33:33.317Z,98.30
2018-05-14T12:36:00.823Z,96.10
2018-05-14T12:38:28.289Z,95.10
2018-05-14T12:40:55.756Z,95.50
2018-05-14T12:43:23.243Z,95.50
2018-05-14T12:45:50.710Z,94.00
2018-05-14T12:48:18.958Z,94.70
2018-05-14T12:50:46.426Z,94.70
2018-05-14T12:53:13.884Z,94.40
2018-05-14T12:55:41.496Z,94.00
2018-05-14T12:58:08.952Z,94.90
2018-05-14T13:00:36.425Z,95.20
2018-05-14T13:03:03.901Z,94.30
2018-05-14T13:05:31.369Z,94.40
2018-05-14T13:07:58.856Z,94.70
2018-05-14T13:10:27.098Z,95.20
2018-05-14T13:12:54.917Z,95.20
2018-05-14T13:15:22.378Z,95.20
2018-05-14T13:17:49.858Z,94.80
2018-05-14T13:20:17.322Z,94.90
2018-05-14T13:22:44.813Z,94.40
2018-05-14T13:25:13.057Z,94.40
2018-05-14T13:27:41.400Z,94.00
2018-05-14T13:30:08.885Z,94.00
2018-05-14T13:32:36.381Z,94.30
2018-05-14T13:35:04.686Z,92.60
2018-05-14T13:37:32.249Z,92.60
2018-05-14T13:39:59.717Z,92.80
2018-05-14T13:42:27.181Z,93.20
2018-05-14T13:44:54.653Z,93.00
2018-05-14T13:47:22.126Z,94.00
2018-05-14T13:49:49.630Z,93.50
2018-05-14T13:52:17.100Z,92.30
2018-05-14T13:54:44.643Z,92.40
2018-05-14T13:57:12.178Z,92.50
2018-05-14T13:59:39.613Z,92.50
2018-05-14T14:02:07.874Z,92.50
2018-05-14T14:04:35.346Z,92.50
2018-05-14T14:07:03.585Z,92.50
2018-05-14T14:09:31.122Z,92.50
2018-05-14T14:11:58.632Z,91.90
2018-05-14T14:14:26.106Z,93.30
2018-05-14T14:16:54.386Z,91.80
2018-05-14T14:19:21.826Z,91.80
2018-05-14T14:21:49.289Z,91.40
2018-05-14T14:24:17.617Z,92.10
2018-05-14T14:26:45.080Z,92.10
2018-05-14T14:29:12.557Z,90.90
2018-05-14T14:31:40.041Z,90.50
2018-05-14T14:34:08.271Z,91.40
2018-05-14T14:36:35.740Z,91.40
2018-05-14T14:39:03.205Z,91.50
2018-05-14T14:41:30.690Z,91.50
2018-05-14T14:43:58.929Z,90.50
2018-05-14T14:46:26.415Z,90.60
2018-05-14T14:48:53.881Z,90.50
2018-05-14T14:51:22.148Z,90.70
2018-05-14T14:53:50.384Z,90.30
2018-05-14T14:56:17.843Z,90.30
2018-05-14T14:58:45.332Z,88.00
2018-05-14T15:01:13.556Z,90.40
2018-05-14T15:03:41.024Z,90.40
2018-05-14T15:06:08.509Z,90.50
2018-05-14T15:08:35.967Z,90.60
2018-05-14T15:11:04.236Z,90.20
2018-05-14T15:13:31.844Z,90.20
2018-05-14T15:15:59.303Z,91.10
2018-05-14T15:18:26.785Z,91.20
2018-05-14T15:20:54.253Z,89.30
2018-05-14T15:23:21.706Z,88.10
2018-05-14T15:25:49.182Z,90.00
2018-05-14T15:28:16.646Z,89.30
2018-05-14T15:30:44.893Z,88.70
2018-05-14T15:33:12.364Z,88.60
2018-05-14T15:35:39.850Z,88.60
2018-05-14T15:38:08.146Z,89.60
2018-05-14T15:40:35.706Z,89.60
2018-05-14T15:43:03.265Z,87.10
2018-05-14T15:45:30.719Z,86.30
2018-05-14T15:47:58.215Z,85.50
2018-05-14T15:50:25.672Z,87.50
2018-05-14T15:52:53.136Z,86.00
2018-05-14T15:55:20.646Z,84.80
2018-05-14T15:57:48.213Z,83.00
2018-05-14T16:00:15.680Z,82.80
2018-05-14T16:02:43.151Z,82.80
2018-05-14T16:05:10.637Z,82.80
2018-05-14T16:07:38.093Z,82.00
2018-05-14T16:10:06.345Z,81.80
2018-05-14T16:12:33.808Z,81.80
2018-05-14T16:15:01.276Z,83.90
2018-05-14T16:17:29.541Z,81.40
2018-05-14T16:19:57.023Z,81.40
2018-05-14T16:22:25.244Z,82.10
2018-05-14T16:24:52.728Z,82.10
2018-05-14T16:27:20.194Z,82.80
2018-05-14T16:29:47.664Z,81.80
2018-05-14T16:32:15.913Z,78.80
2018-05-14T16:34:43.485Z,78.80
2018-05-14T16:37:11.052Z,78.40
2018-05-14T16:39:39.301Z,79.30
2018-05-14T16:42:06.770Z,79.30
2018-05-14T16:44:34.981Z,79.50
2018-05-14T16:47:02.554Z,79.50
2018-05-14T16:49:30.061Z,77.60
2018-05-14T16:51:57.549Z,75.80
2018-05-14T16:54:25.064Z,74.80
2018-05-14T16:56:53.330Z,75.40
2018-05-14T16:59:21.808Z,74.50
2018-05-14T17:01:49.301Z,75.10
2018-05-14T17:04:16.803Z,73.20
2018-05-14T17:06:45.095Z,74.40
2018-05-14T17:09:12.560Z,75.00
2018-05-14T17:11:40.047Z,75.00
2018-05-14T17:14:08.903Z,76.60
2018-05-14T17:16:37.173Z,75.30
2018-05-14T17:19:05.471Z,75.00
2018-05-14T17:21:34.445Z,74.90
2018-05-14T17:24:01.902Z,74.80
2018-05-14T17:26:29.451Z,75.60
2018-05-14T17:28:57.637Z,77.30
2018-05-14T17:31:25.090Z,77.40
2018-05-14T17:33:52.578Z,77.50
2018-05-14T17:36:20.881Z,77.30
2018-05-14T17:38:48.305Z,77.30
2018-05-14T17:41:15.828Z,77.90
2018-05-14T17:43:43.306Z,78.10
2018-05-14T17:46:10.785Z,78.40
2018-05-14T17:48:39.035Z,79.30
2018-05-14T17:51:06.522Z,79.00
2018-05-14T17:53:34.790Z,79.70
2018-05-14T17:56:02.272Z,79.70
2018-05-14T17:58:29.746Z,80.00
2018-05-14T18:00:57.241Z,80.90
2018-05-14T18:03:24.737Z,81.60
2018-05-14T18:05:52.992Z,83.30
2018-05-14T18:08:20.486Z,83.30
2018-05-14T18:10:48.673Z,83.70
2018-05-14T18:13:16.726Z,83.60
2018-05-14T18:15:45.045Z,84.40
2018-05-14T18:18:13.385Z,84.50
2018-05-14T18:20:44.593Z,84.70
2018-05-14T18:23:20.036Z,85.20
2018-05-14T18:25:53.895Z,85.30
2018-05-14T18:28:21.350Z,85.20
2018-05-14T18:30:48.821Z,86.10
2018-05-14T18:33:23.812Z,86.60
2018-05-14T18:35:51.288Z,87.60
2018-05-14T18:38:18.769Z,88.10
2018-05-14T18:40:47.246Z,88.30
2018-05-14T18:43:14.750Z,88.40
2018-05-14T18:45:43.975Z,88.90
2018-05-14T18:48:12.048Z,88.90
2018-05-14T18:50:41.408Z,89.20
2018-05-14T18:53:08.902Z,89.50
2018-05-14T18:55:36.370Z,90.00
2018-05-14T18:58:03.919Z,90.20
2018-05-14T19:00:31.406Z,90.10
2018-05-14T19:03:00.053Z,90.20
2018-05-14T19:05:29.010Z,90.20
2018-05-14T19:07:59.490Z,90.50
2018-05-14T19:10:33.349Z,90.50
2018-05-14T19:13:01.609Z,91.10
2018-05-14T19:15:35.489Z,91.10
2018-05-14T19:18:02.972Z,91.30
2018-05-14T19:20:31.538Z,91.80
2018-05-14T19:23:04.638Z,92.10
2018-05-14T19:25:32.967Z,92.00
2018-05-14T19:28:06.678Z,92.30
2018-05-14T19:30:35.024Z,92.60
2018-05-14T19:33:04.038Z,92.90
2018-05-14T19:35:38.658Z,92.90
2018-05-14T19:38:06.737Z,93.00
2018-05-14T19:40:51.089Z,93.20
2018-05-14T19:43:18.555Z,93.50
2018-05-14T19:45:48.878Z,93.80
2018-05-14T19:48:16.369Z,93.90
2018-05-14T19:50:44.701Z,94.30
2018-05-14T19:53:12.955Z,94.60
2018-05-14T19:55:42.231Z,95.20
2018-05-14T19:58:09.697Z,95.20
2018-05-14T20:00:37.981Z,95.30
2018-05-14T20:03:06.221Z,95.50
2018-05-14T20:05:34.677Z,95.50
2018-05-14T20:08:04.362Z,95.70
2018-05-14T20:10:31.845Z,95.90
2018-05-14T20:13:02.098Z,97.30
2018-05-14T20:15:30.940Z,99.30
2018-05-14T20:17:59.143Z,99.40
2018-05-14T20:20:26.622Z,99.90
2018-05-14T20:22:54.638Z,99.90
2018-05-14T20:25:22.645Z,99.90
2018-05-14T20:27:53.853Z,99.90
2018-05-14T20:30:21.416Z,99.90
2018-05-14T20:32:50.229Z,99.90
2018-05-14T20:35:17.714Z,99.90
2018-05-14T20:37:46.427Z,99.90
2018-05-14T20:40:13.937Z,99.90
2018-05-14T20:42:41.473Z,99.90
2018-05-14T20:45:09.798Z,99.90
2018-05-14T20:47:39.029Z,99.90
2018-05-14T20:50:07.089Z,99.90
2018-05-14T20:52:34.658Z,99.90
2018-05-14T20:55:02.131Z,99.90
2018-05-14T20:57:29.599Z,99.90
2018-05-14T20:59:57.052Z,99.90
2018-05-14T21:02:24.539Z,99.90
2018-05-14T21:04:52.036Z,99.90
2018-05-14T21:07:19.501Z,99.90
2018-05-14T21:09:47.017Z,99.90
2018-05-14T21:12:15.244Z,99.90
2018-05-14T21:14:42.746Z,99.90
2018-05-14T21:17:10.196Z,99.90
2018-05-14T21:19:37.676Z,99.90
2018-05-14T21:22:05.898Z,99.90
2018-05-14T21:24:33.385Z,99.90
2018-05-14T21:27:00.837Z,99.90
2018-05-14T21:29:28.302Z,99.90
2018-05-14T21:31:55.799Z,99.90
2018-05-14T21:34:23.272Z,99.90
2018-05-14T21:36:50.761Z,99.90
2018-05-14T21:39:18.221Z,99.90
2018-05-14T21:41:45.698Z,99.90
2018-05-14T21:44:13.945Z,99.90
2018-05-14T21:46:41.437Z,99.90
2018-05-14T21:49:08.908Z,99.90
2018-05-14T21:51:36.377Z,99.90
2018-05-14T21:54:03.838Z,99.90
2018-05-14T21:56:31.753Z,99.90
2018-05-14T21:58:59.238Z,99.90
2018-05-14T22:01:26.712Z,99.90
2018-05-14T22:03:54.170Z,99.90
2018-05-14T22:06:21.637Z,99.90
2018-05-14T22:08:49.092Z,99.90
2018-05-14T22:11:16.561Z,99.90
2018-05-14T22:13:44.053Z,99.90
2018-05-14T22:16:12.276Z,99.90
2018-05-14T22:18:39.745Z,99.90
2018-05-14T22:21:07.228Z,99.90
2018-05-14T22:23:34.696Z,99.90
2018-05-14T22:26:03.014Z,99.90
2018-05-14T22:28:30.574Z,99.90
2018-05-14T22:30:58.025Z,99.90
2018-05-14T22:33:25.593Z,99.90
2018-05-14T22:35:53.097Z,99.90
2018-05-14T22:38:20.553Z,99.90
2018-05-14T22:40:48.029Z,99.90
2018-05-14T22:43:16.273Z,99.90
2018-05-14T22:45:43.738Z,99.90
2018-05-14T22:48:11.240Z,99.90
2018-05-14T22:50:38.805Z,99.90
2018-05-14T22:53:06.266Z,99.90
2018-05-14T22:55:33.758Z,99.90
2018-05-14T22:58:01.225Z,99.90
2018-05-14T23:00:28.785Z,99.90
2018-05-14T23:02:56.290Z,99.90
2018-05-14T23:05:23.756Z,99.90
2018-05-14T23:07:51.222Z,99.90
2018-05-14T23:10:18.865Z,99.90
2018-05-14T23:12:46.350Z,99.90
2018-05-14T23:15:13.816Z,99.90
2018-05-14T23:17:41.288Z,99.90
2018-05-14T23:20:08.761Z,99.90
2018-05-14T23:22:42.702Z,99.90
2018-05-14T23:25:10.164Z,99.90
2018-05-14T23:27:37.616Z,99.90
2018-05-14T23:30:05.092Z,99.90
2018-05-14T23:32:32.557Z,99.90
2018-05-14T23:35:00.063Z,99.90
2018-05-14T23:37:27.536Z,99.90
2018-05-14T23:39:55.096Z,99.90
2018-05-14T23:42:22.608Z,99.90
2018-05-14T23:44:50.848Z,99.90
2018-05-14T23:47:18.308Z,99.90
2018-05-14T23:49:45.815Z,99.90
2018-05-14T23:52:14.033Z,99.90
2018-05-14T23:54:41.506Z,99.90
2018-05-14T23:57:08.990Z,99.90
2018-05-14T23:59:36.458Z,99.90
